Main page
METAR-TAF:

METAR-TAF

Airports :

Franklin County State Airport

Franklin County, Vermont, United States

latitude: 44-56-25N, longitude: 073-05-51W, elevation: 226 ft

Current weather observation

The report was made 21 minutes ago, at 21:56 UTC
Wind 9 mph from the North/Northeast
Temperature 43°F
Humidity 65%
Pressure 29.88 in. Hg
Visibility: 10 miles
Overcast at a height of 3500 ft

METAR: KFSO 012156Z AUTO 02008KT 10SM OVC035 06/00 A2988 RMK AO2 T00601005

Time: 18:17 (22:17 UTC)


TAF: missing

Weather observations and forecasts of more than 4000 airports (METAR and TAF reports).

The available stations are represented by yellow and red dots on the map.

Hover mouse over dot to see the name of the station.

Then click to see weather observations and forecasts.

To change the map : click on the green buttons with a black cross to zoom in, on the green button with a dash to zoom out, or on the green arrows for adjacent maps.


METAR-TAF: